Time;durP1;ratioP1;P1;durP2;ratioP2;P2;SDS_P1;SDS_P2;PMS_P1;PMS_P2;Temp;Humidity;BMP_temperature;BMP_pressure;BME280_temperature;BME280_humidity;BME280_pressure;Samples;Min_cycle;Max_cycle;Signal;HPM_P1;HPM_P2
2022/05/12 00:00:18;;;;;;;7.50;3.50;;;;;;;22.96;36.94;97606.19;8341505;28;20236;-74
2022/05/12 00:04:21;;;;;;;4.60;3.70;;;;;;;22.95;37.63;97601.88;8353551;28;20238;-74
2022/05/12 00:08:25;;;;;;;6.93;3.73;;;;;;;22.92;37.70;97594.25;8352982;28;20233;-74
2022/05/12 00:12:28;;;;;;;6.37;3.40;;;;;;;22.81;38.02;97594.53;8353005;28;20238;-74
2022/05/12 00:16:31;;;;;;;8.17;3.70;;;;;;;22.82;37.96;97590.91;8353063;28;20235;-74
2022/05/12 00:20:37;;;;;;;5.50;3.50;;;;;;;22.87;36.80;97583.38;8353131;28;20274;-74
2022/05/12 00:24:41;;;;;;;7.10;3.23;;;;;;;22.89;36.24;97588.50;8352709;28;20234;-74
2022/05/12 00:28:44;;;;;;;5.80;3.40;;;;;;;22.88;36.17;97600.03;8352609;28;20224;-74
2022/05/12 00:32:47;;;;;;;8.60;3.70;;;;;;;22.65;35.62;97624.25;8352652;28;20444;-74
2022/05/12 00:36:50;;;;;;;8.17;2.57;;;;;;;22.73;34.41;97628.78;8352301;28;20425;-74
2022/05/12 00:40:55;;;;;;;4.57;2.70;;;;;;;22.71;34.38;97623.66;8352509;28;20295;-75
2022/05/12 00:44:58;;;;;;;5.13;3.00;;;;;;;22.78;34.21;97619.41;8352209;28;20240;-74
2022/05/12 00:49:04;;;;;;;5.53;2.60;;;;;;;22.76;34.11;97631.94;8352111;28;20242;-74
2022/05/12 00:53:08;;;;;;;4.93;2.83;;;;;;;22.81;34.74;97613.03;8352037;28;20299;-74
2022/05/12 00:57:17;;;;;;;4.53;2.97;;;;;;;22.87;34.24;97620.31;8350841;28;20243;-74
2022/05/12 01:01:20;;;;;;;11.00;3.10;;;;;;;22.82;34.43;97623.41;8351655;28;20232;-74
2022/05/12 01:05:23;;;;;;;7.60;2.70;;;;;;;22.80;34.53;97635.94;8351179;28;20536;-72
2022/05/12 01:09:27;;;;;;;6.77;2.73;;;;;;;22.72;34.78;97635.06;8351317;28;20232;-72
2022/05/12 01:13:32;;;;;;;6.43;2.60;;;;;;;22.72;34.74;97630.59;8351437;28;20243;-73
2022/05/12 01:17:35;;;;;;;7.40;2.67;;;;;;;22.67;35.08;97637.31;8351238;28;20444;-72
2022/05/12 01:21:38;;;;;;;9.37;2.47;;;;;;;22.67;35.27;97645.22;8351137;28;20228;-72
2022/05/12 01:25:42;;;;;;;5.03;2.77;;;;;;;22.63;35.33;97639.44;8350878;28;20527;-73
2022/05/12 01:29:45;;;;;;;4.67;2.47;;;;;;;22.59;35.76;97651.28;8351004;28;20419;-73
2022/05/12 01:33:48;;;;;;;8.23;2.50;;;;;;;22.57;35.58;97656.69;8350778;28;20232;-74
2022/05/12 01:37:52;;;;;;;6.13;2.43;;;;;;;22.51;36.26;97657.31;8350319;28;20236;-73
2022/05/12 01:41:56;;;;;;;4.57;2.70;;;;;;;22.51;36.04;97662.59;8350356;28;20224;-73
2022/05/12 01:45:59;;;;;;;8.30;2.63;;;;;;;22.50;35.98;97673.28;8350245;28;20224;-73
2022/05/12 01:50:03;;;;;;;5.50;2.43;;;;;;;22.49;36.44;97671.63;8350273;28;20252;-74
2022/05/12 01:54:06;;;;;;;5.33;2.43;;;;;;;22.38;36.50;97675.31;8350131;28;20293;-74
2022/05/12 01:58:11;;;;;;;4.43;2.67;;;;;;;22.41;35.98;97682.94;8349765;28;20549;-74
2022/05/12 02:02:14;;;;;;;4.33;2.80;;;;;;;22.41;36.42;97685.59;8349949;28;20242;-74
2022/05/12 02:06:17;;;;;;;6.87;3.27;;;;;;;22.31;36.23;97687.44;8349741;28;20236;-74
2022/05/12 02:10:22;;;;;;;4.70;2.60;;;;;;;22.25;36.72;97688.84;8349617;28;20232;-74
2022/05/12 02:14:27;;;;;;;6.17;2.57;;;;;;;22.24;37.87;97697.72;8349104;28;20246;-73
2022/05/12 02:18:30;;;;;;;4.93;2.67;;;;;;;22.22;37.26;97702.31;8349205;28;20239;-74
2022/05/12 02:22:33;;;;;;;7.13;2.90;;;;;;;22.14;37.37;97708.34;8348898;28;20242;-73
2022/05/12 02:26:36;;;;;;;4.93;2.67;;;;;;;22.11;37.81;97713.91;8348932;28;20247;-74
2022/05/12 02:30:40;;;;;;;4.57;2.90;;;;;;;22.09;38.04;97718.50;8348867;28;20231;-73
2022/05/12 02:34:43;;;;;;;5.30;2.80;;;;;;;22.09;38.24;97728.22;8348612;28;20266;-73
2022/05/12 02:38:46;;;;;;;4.87;2.47;;;;;;;22.02;38.49;97733.22;8348565;28;20235;-73
2022/05/12 02:42:49;;;;;;;4.43;2.87;;;;;;;22.01;38.54;97728.94;8348510;28;20224;-73
2022/05/12 02:46:54;;;;;;;4.30;2.70;;;;;;;22.00;38.56;97733.38;8348286;28;20299;-73
2022/05/12 02:50:57;;;;;;;4.43;2.70;;;;;;;21.94;39.23;97738.41;8348497;28;20244;-73
2022/05/12 02:55:01;;;;;;;3.93;2.93;;;;;;;21.89;39.86;97743.28;8348310;28;20239;-74
2022/05/12 02:59:04;;;;;;;7.27;2.77;;;;;;;21.82;39.98;97735.94;8348139;28;20306;-74
2022/05/12 03:03:08;;;;;;;12.40;3.00;;;;;;;21.80;40.32;97744.97;8348006;28;20234;-74
2022/05/12 03:07:11;;;;;;;7.50;3.10;;;;;;;21.82;40.60;97745.66;8348083;28;20246;-74
2022/05/12 03:11:14;;;;;;;8.00;3.20;;;;;;;21.71;41.14;97754.56;8347916;28;20239;-74
2022/05/12 03:15:17;;;;;;;6.40;3.00;;;;;;;21.79;41.39;97748.59;8347961;28;20238;-74
2022/05/12 03:19:22;;;;;;;4.67;2.77;;;;;;;21.78;41.57;97760.09;8347273;28;20243;-74
2022/05/12 03:23:26;;;;;;;7.07;2.70;;;;;;;21.74;41.41;97761.34;8346958;28;20243;-74
2022/05/12 03:27:29;;;;;;;7.13;2.90;;;;;;;21.81;41.35;97773.81;8347627;28;20228;-74
2022/05/12 03:31:32;;;;;;;5.97;2.77;;;;;;;21.69;42.06;97772.34;8347537;28;20243;-74
2022/05/12 03:35:37;;;;;;;10.10;2.80;;;;;;;21.69;42.02;97780.25;8347549;28;20231;-74
2022/05/12 03:39:41;;;;;;;4.17;2.70;;;;;;;21.65;41.91;97786.78;8347255;28;20243;-74
2022/05/12 03:48:04;;;;;;;7.57;2.97;;;;;;;21.69;42.36;97795.22;8347428;28;20239;-73
2022/05/12 03:52:09;;;;;;;6.63;3.00;;;;;;;21.55;42.51;97807.88;8347303;28;20229;-74
2022/05/12 03:56:12;;;;;;;4.83;2.50;;;;;;;21.56;42.76;97812.16;8347194;28;20228;-74
2022/05/12 04:00:28;;;;;;;5.93;2.80;;;;;;;21.47;43.07;97811.19;8347007;28;20237;-74
2022/05/12 04:04:31;;;;;;;8.17;2.80;;;;;;;21.48;42.92;97826.03;8355824;28;20255;-74
2022/05/12 04:08:36;;;;;;;4.83;2.63;;;;;;;21.49;43.69;97826.84;8380046;28;20235;-74
2022/05/12 04:12:39;;;;;;;4.73;2.77;;;;;;;21.51;43.43;97832.81;8379931;28;20234;-74
2022/05/12 04:16:42;;;;;;;5.20;2.80;;;;;;;21.51;43.47;97842.53;8379803;28;20534;-73
2022/05/12 04:20:45;;;;;;;4.60;2.77;;;;;;;21.50;43.42;97844.34;8379605;28;20238;-74
2022/05/12 04:24:50;;;;;;;5.87;2.37;;;;;;;21.51;43.47;97853.06;8379331;28;20253;-74
2022/05/12 04:28:53;;;;;;;4.57;2.40;;;;;;;21.48;43.07;97862.91;8379428;28;20233;-75
2022/05/12 04:35:09;;;;;;;5.63;2.87;;;;;;;21.53;42.94;97861.66;8381662;28;20237;-72
2022/05/12 04:37:19;;;;;;;6.10;2.70;;;;;;;21.53;42.86;97867.75;8385148;28;20231;-74
2022/05/12 04:41:23;;;;;;;4.30;2.60;;;;;;;21.52;43.29;97879.28;8384919;28;20262;-74
2022/05/12 04:45:29;;;;;;;4.30;2.83;;;;;;;21.64;43.00;97887.88;8385003;28;20235;-73
2022/05/12 04:49:32;;;;;;;7.27;2.93;;;;;;;21.58;43.17;97893.69;8384605;28;20540;-73
2022/05/12 04:53:35;;;;;;;4.20;2.43;;;;;;;21.56;43.43;97901.72;8384994;28;20552;-72
2022/05/12 04:57:41;;;;;;;6.10;2.87;;;;;;;21.63;43.62;97904.66;8384875;28;20249;-74
2022/05/12 05:01:44;;;;;;;3.77;2.40;;;;;;;21.60;43.62;97912.84;8351593;28;20235;-73
2022/05/12 05:05:48;;;;;;;3.70;2.47;;;;;;;21.53;44.01;97917.00;8351341;28;20339;-75
2022/05/12 05:09:51;;;;;;;6.43;2.57;;;;;;;21.60;43.88;97923.38;8351595;28;20234;-75
2022/05/12 05:13:56;;;;;;;4.40;2.60;;;;;;;21.54;44.14;97932.66;8351294;28;20345;-75
2022/05/12 05:17:58;;;;;;;7.37;2.43;;;;;;;21.68;43.78;97939.31;8351111;28;20406;-75
2022/05/12 05:22:01;;;;;;;5.57;2.57;;;;;;;21.63;44.01;97955.56;8351050;28;20423;-74
2022/05/12 05:26:04;;;;;;;7.43;2.87;;;;;;;21.81;43.75;97968.84;8350516;28;20239;-74
2022/05/12 05:30:12;;;;;;;5.20;2.40;;;;;;;21.84;43.69;97963.31;8350570;28;20239;-74
2022/05/12 05:34:15;;;;;;;8.00;2.37;;;;;;;21.93;43.59;97979.25;8350752;28;20407;-74
2022/05/12 05:38:18;;;;;;;4.67;2.10;;;;;;;21.85;43.73;97980.78;8350495;28;20263;-74
2022/05/12 05:42:21;;;;;;;7.33;2.37;;;;;;;21.85;43.87;97974.69;8350238;28;20228;-74
2022/05/12 05:46:26;;;;;;;8.77;2.57;;;;;;;22.00;43.55;97990.91;8349518;28;20231;-73
2022/05/12 05:50:31;;;;;;;5.80;2.30;;;;;;;22.12;43.52;97995.06;8350039;28;20234;-73
2022/05/12 05:54:35;;;;;;;5.87;2.23;;;;;;;22.16;43.76;98000.91;8349811;28;20239;-74
2022/05/12 05:58:39;;;;;;;12.13;2.40;;;;;;;22.13;43.74;98009.09;8357515;28;20297;-74
2022/05/12 06:02:43;;;;;;;8.10;2.47;;;;;;;22.16;43.80;98019.34;8382880;28;20243;-74
2022/05/12 06:06:47;;;;;;;4.33;2.10;;;;;;;22.24;44.06;98019.50;8382402;28;20227;-73
2022/05/12 06:10:50;;;;;;;3.10;1.93;;;;;;;22.31;44.08;98023.25;8382702;28;20407;-73
2022/05/12 06:14:53;;;;;;;8.23;2.30;;;;;;;22.23;43.95;98031.03;8382555;28;20242;-74
2022/05/12 06:18:57;;;;;;;7.50;2.23;;;;;;;22.13;43.92;98043.38;8382187;28;20238;-73
2022/05/12 06:23:01;;;;;;;4.17;2.23;;;;;;;22.32;43.80;98046.03;8382069;28;20246;-73
2022/05/12 06:27:04;;;;;;;7.87;2.10;;;;;;;22.23;43.76;98047.66;8381965;28;20414;-73
2022/05/12 06:31:07;;;;;;;4.50;2.17;;;;;;;22.44;43.56;98057.28;8381858;28;20288;-74
2022/05/12 06:35:16;;;;;;;8.13;2.33;;;;;;;22.28;43.80;98059.66;8381725;28;20236;-74
2022/05/12 06:39:19;;;;;;;7.50;2.20;;;;;;;22.23;43.96;98071.41;8381483;28;20235;-74
2022/05/12 06:43:23;;;;;;;4.97;1.80;;;;;;;22.22;44.01;98082.13;8381075;28;20290;-74
2022/05/12 06:47:26;;;;;;;2.97;1.73;;;;;;;22.19;44.05;98077.13;8381276;28;20304;-73
2022/05/12 06:51:31;;;;;;;6.57;2.30;;;;;;;22.53;43.52;98079.34;8381205;28;20561;-74
2022/05/12 06:55:34;;;;;;;6.33;2.00;;;;;;;22.82;43.37;98076.66;8380514;28;20244;-74
2022/05/12 06:59:38;;;;;;;5.17;2.10;;;;;;;22.96;42.62;98085.91;8380760;28;20231;-73
2022/05/12 07:03:41;;;;;;;5.93;2.13;;;;;;;22.69;42.87;98084.88;8380997;28;20227;-73
2022/05/12 07:07:46;;;;;;;5.87;1.80;;;;;;;23.21;42.29;98082.69;8380739;28;20302;-74
2022/05/12 07:11:49;;;;;;;3.77;1.87;;;;;;;23.12;42.19;98093.28;8380684;28;20543;-74
2022/05/12 07:15:52;;;;;;;7.10;1.80;;;;;;;23.13;42.52;98093.16;8380747;28;20522;-74
2022/05/12 07:26:35;;;;;;;7.43;1.90;;;;;;;23.28;41.75;98092.66;8380483;28;20231;-74
2022/05/12 07:28:45;;;;;;;3.17;1.60;;;;;;;23.67;40.81;98113.63;8380257;28;20234;-75
2022/05/12 07:32:48;;;;;;;3.10;1.70;;;;;;;23.49;41.09;98118.84;8380379;28;20389;-75
2022/05/12 07:36:53;;;;;;;4.57;1.90;;;;;;;23.76;40.49;98115.38;8380326;28;20518;-75
2022/05/12 07:40:57;;;;;;;5.33;1.80;;;;;;;24.06;40.07;98130.09;8380433;28;20269;-73
2022/05/12 07:45:00;;;;;;;4.53;1.93;;;;;;;23.93;39.77;98125.19;8380210;28;20235;-73
2022/05/12 07:49:04;;;;;;;6.67;1.83;;;;;;;23.83;39.94;98127.06;8380340;28;20421;-74
2022/05/12 07:53:07;;;;;;;4.63;1.77;;;;;;;24.48;38.66;98121.56;8380306;28;20242;-74
2022/05/12 07:57:12;;;;;;;4.33;1.70;;;;;;;25.22;37.56;98123.94;8380002;28;20234;-73
2022/05/12 08:01:18;;;;;;;5.67;2.10;;;;;;;25.34;38.88;98120.91;8379270;28;20423;-72
2022/05/12 08:05:21;;;;;;;4.93;1.70;;;;;;;24.27;39.22;98136.94;8347948;28;20237;-72
2022/05/12 08:09:24;;;;;;;2.53;1.80;;;;;;;24.90;38.99;98133.34;8352217;28;20229;-73
2022/05/12 08:13:29;;;;;;;4.33;1.70;;;;;;;24.49;39.07;98143.59;8352745;28;20232;-73
2022/05/12 08:17:32;;;;;;;6.03;1.80;;;;;;;24.60;38.66;98143.41;8352923;28;20247;-72
2022/05/12 08:21:35;;;;;;;3.23;1.87;;;;;;;24.83;38.87;98151.69;8352553;28;20349;-71
2022/05/12 08:25:38;;;;;;;5.97;1.70;;;;;;;24.97;38.42;98137.88;8352716;28;20247;-72
2022/05/12 08:29:43;;;;;;;5.07;1.77;;;;;;;25.18;37.58;98144.63;8352563;28;20239;-73
2022/05/12 08:33:46;;;;;;;4.07;1.53;;;;;;;25.11;37.58;98143.59;8352138;28;20240;-73
2022/05/12 08:37:49;;;;;;;22.47;17.50;;;;;;;24.78;36.58;98156.59;8351847;28;20224;-73
2022/05/12 08:41:58;;;;;;;7.57;5.03;;;;;;;24.93;36.73;98149.75;8352083;28;20332;-73
2022/05/12 08:46:06;;;;;;;5.70;2.40;;;;;;;25.31;36.18;98149.53;8352074;28;20247;-73
2022/05/12 08:50:09;;;;;;;5.13;1.60;;;;;;;25.63;34.76;98153.34;8351980;28;20241;-73
2022/05/12 08:54:18;;;;;;;5.07;1.60;;;;;;;24.79;36.34;98160.94;8351766;28;20235;-73
2022/05/12 08:58:23;;;;;;;3.03;1.37;;;;;;;25.62;35.81;98154.34;8357277;28;20240;-72
2022/05/12 09:02:36;;;;;;;4.17;1.67;;;;;;;24.94;35.76;98167.34;8384194;28;20232;-73
2022/05/12 09:06:50;;;;;;;6.87;1.50;;;;;;;25.39;35.78;98165.47;8384347;28;20242;-73
2022/05/12 09:11:00;;;;;;;4.37;1.40;;;;;;;25.11;36.16;98181.53;8384485;28;20514;-74
2022/05/12 09:15:06;;;;;;;5.13;2.03;;;;;;;24.49;37.55;98176.19;8384211;28;20423;-73
2022/05/12 09:19:15;;;;;;;4.20;1.40;;;;;;;25.38;35.83;98176.25;8383353;28;20235;-73
2022/05/12 09:23:18;;;;;;;5.20;1.30;;;;;;;25.15;36.71;98179.38;8384005;28;20247;-73
2022/05/12 09:27:28;;;;;;;5.40;1.20;;;;;;;25.00;36.96;98172.97;8383882;28;20239;-73
2022/05/12 09:31:31;;;;;;;5.03;1.40;;;;;;;26.23;34.71;98173.63;8376516;28;20492;-73
2022/05/12 09:35:35;;;;;;;7.97;1.70;;;;;;;26.18;34.93;98173.28;8383583;28;20242;-73
2022/05/12 09:39:40;;;;;;;5.67;1.60;;;;;;;25.21;37.36;98191.16;8383299;28;20531;-73
2022/05/12 09:43:43;;;;;;;7.00;2.30;;;;;;;25.39;37.01;98181.38;8383193;28;20225;-73
2022/05/12 09:47:46;;;;;;;3.73;1.60;;;;;;;25.86;36.12;98172.19;8383074;28;20226;-74
2022/05/12 09:51:52;;;;;;;10.37;1.50;;;;;;;25.07;37.26;98176.69;8383071;28;20421;-75
2022/05/12 09:56:01;;;;;;;6.27;1.80;;;;;;;24.95;37.15;98176.94;8367620;28;20236;-73
2022/05/12 10:00:07;;;;;;;8.60;1.93;;;;;;;25.16;37.19;98181.06;8354221;28;20243;-73
2022/05/12 10:08:35;;;;;;;5.73;1.27;;;;;;;25.23;36.68;98165.41;8349169;28;20238;-73
2022/05/12 10:12:46;;;;;;;4.43;1.23;;;;;;;25.34;36.97;98163.31;8349295;28;20426;-73
2022/05/12 10:16:50;;;;;;;5.73;1.50;;;;;;;25.78;37.23;98165.03;8349284;28;20234;-73
2022/05/12 10:20:55;;;;;;;5.97;1.70;;;;;;;25.39;37.53;98176.09;8349140;28;20233;-74
2022/05/12 10:25:07;;;;;;;4.90;1.30;;;;;;;25.22;36.98;98167.16;8348597;28;20244;-73
2022/05/12 10:29:21;;;;;;;5.63;1.40;;;;;;;25.74;36.00;98174.25;8348164;28;20238;-73
2022/05/12 10:33:31;;;;;;;4.10;1.40;;;;;;;25.72;35.70;98173.59;8347642;28;20242;-72
2022/05/12 10:37:44;;;;;;;10.37;1.60;;;;;;;25.63;34.93;98179.88;8348206;28;20255;-73
2022/05/12 10:41:58;;;;;;;5.43;1.13;;;;;;;25.69;34.30;98160.66;8348156;28;20240;-73
2022/05/12 10:46:05;;;;;;;4.63;1.27;;;;;;;26.40;32.96;98162.03;8348316;28;20258;-72
2022/05/12 10:50:14;;;;;;;10.53;1.30;;;;;;;27.06;32.33;98151.47;8348328;28;20532;-73
2022/05/12 10:54:24;;;;;;;8.23;1.00;;;;;;;27.04;30.54;98167.56;8348172;28;20233;-73
2022/05/12 10:58:36;;;;;;;7.50;1.30;;;;;;;27.26;30.74;98162.56;8353679;28;20545;-73
2022/05/12 11:02:41;;;;;;;3.87;1.20;;;;;;;27.35;30.37;98161.56;8380913;28;20510;-73
2022/05/12 11:06:46;;;;;;;17.30;1.90;;;;;;;26.57;31.59;98173.50;8380771;28;20240;-75
2022/05/12 11:10:51;;;;;;;6.53;1.23;;;;;;;27.10;30.80;98160.75;8380666;28;20228;-73
2022/05/12 11:14:58;;;;;;;4.13;1.13;;;;;;;25.95;31.51;98150.03;8380413;28;20443;-73
2022/05/12 11:19:08;;;;;;;4.23;1.20;;;;;;;27.47;30.00;98170.84;8380678;28;20250;-74
2022/05/12 11:23:16;;;;;;;3.67;1.20;;;;;;;27.57;29.75;98152.03;8380358;28;20438;-73
2022/05/12 11:27:33;;;;;;;8.30;1.47;;;;;;;27.12;30.22;98161.41;8379966;28;20238;-72
2022/05/12 11:31:44;;;;;;;4.33;1.17;;;;;;;27.26;30.37;98152.78;8379983;28;20236;-72
2022/05/12 11:35:49;;;;;;;1.87;1.07;;;;;;;26.75;31.25;98153.97;8380080;28;20525;-73
2022/05/12 11:39:55;;;;;;;5.07;1.40;;;;;;;26.05;32.56;98148.06;8379992;28;20225;-72
2022/05/12 11:48:35;;;;;;;2.67;1.07;;;;;;;27.12;31.23;98142.81;8386356;28;20229;-72
2022/05/12 11:52:44;;;;;;;6.00;1.40;;;;;;;27.64;30.68;98137.00;8386668;28;20240;-73
2022/05/12 11:56:49;;;;;;;5.53;1.13;;;;;;;28.07;28.70;98134.84;8386704;28;20246;-73
2022/05/12 12:00:56;;;;;;;10.13;1.17;;;;;;;27.95;28.84;98136.25;8386403;28;20376;-74
2022/05/12 12:05:01;;;;;;;7.40;1.67;;;;;;;27.92;29.28;98125.13;8386284;28;20231;-72
2022/05/12 12:09:33;;;;;;;4.83;1.20;;;;;;;27.40;30.02;98108.69;8386334;28;20238;-73
2022/05/12 12:13:36;;;;;;;9.30;1.30;;;;;;;27.99;29.43;98118.09;8385493;28;20322;-72
2022/05/12 12:17:41;;;;;;;7.57;1.43;;;;;;;27.63;29.70;98116.75;8386091;28;20552;-72
2022/05/12 12:21:53;;;;;;;2.87;1.00;;;;;;;27.43;30.14;98116.31;8385875;28;20529;-72
2022/05/12 12:25:58;;;;;;;5.97;1.10;;;;;;;27.02;30.93;98129.69;8385828;28;20230;-73
2022/05/12 12:30:23;;;;;;;3.43;1.07;;;;;;;27.13;30.39;98127.69;8385714;28;20519;-72
2022/05/12 12:34:28;;;;;;;5.43;1.10;;;;;;;26.68;31.21;98138.69;8385366;28;20230;-73
2022/05/12 12:39:04;;;;;;;3.40;1.17;;;;;;;27.85;29.31;98139.09;8385509;28;20241;-74
2022/05/12 12:43:18;;;;;;;6.77;1.33;;;;;;;27.78;30.75;98129.31;8380355;28;20248;-73
2022/05/12 12:47:36;;;;;;;3.27;1.10;;;;;;;27.15;30.45;98117.69;8385133;28;20242;-73
2022/05/12 12:51:41;;;;;;;6.43;1.50;;;;;;;27.74;29.40;98120.88;8378899;28;20234;-73
2022/05/12 13:00:11;;;;;;;4.57;1.70;;;;;;;27.54;29.21;98112.47;8384588;28;20309;-74
2022/05/12 13:04:16;;;;;;;8.77;1.23;;;;;;;27.56;28.48;98105.13;8384758;28;20240;-73
2022/05/12 13:08:25;;;;;;;4.63;1.37;;;;;;;28.03;29.04;98114.09;8384308;28;20238;-73
2022/05/12 13:12:29;;;;;;;5.53;1.70;;;;;;;27.83;28.85;98109.16;8376562;28;20259;-73
2022/05/12 13:16:38;;;;;;;7.37;1.20;;;;;;;28.66;28.96;98109.50;8384105;28;20244;-74
2022/05/12 13:20:44;;;;;;;5.83;1.47;;;;;;;28.34;28.47;98108.69;8384359;28;20246;-73
2022/05/12 13:24:47;;;;;;;5.47;1.30;;;;;;;28.12;28.36;98096.22;8384021;28;20262;-73
2022/05/12 13:28:50;;;;;;;6.47;1.43;;;;;;;28.15;28.89;98102.00;8383667;28;20242;-72
2022/05/12 13:32:56;;;;;;;5.47;1.33;;;;;;;28.19;29.36;98110.47;8383487;28;20237;-71
2022/05/12 13:37:14;;;;;;;3.83;1.40;;;;;;;27.08;30.47;98098.97;8383132;28;20227;-72
2022/05/12 13:41:23;;;;;;;6.23;1.60;;;;;;;27.40;30.21;98092.75;8383343;28;20305;-72
2022/05/12 13:45:28;;;;;;;9.20;1.67;;;;;;;27.98;29.20;98084.50;8382890;28;20542;-72
2022/05/12 13:49:34;;;;;;;4.50;1.50;;;;;;;28.04;29.29;98089.94;8383462;28;20547;-73
2022/05/12 13:53:47;;;;;;;5.07;1.50;;;;;;;27.82;28.94;98086.22;8383195;28;20234;-73
2022/05/12 13:57:52;;;;;;;6.47;1.47;;;;;;;27.32;29.38;98070.66;8382687;28;20234;-71
2022/05/12 14:02:13;;;;;;;6.30;1.60;;;;;;;26.81;30.26;98076.28;8382662;28;20233;-72
2022/05/12 14:06:24;;;;;;;8.87;1.60;;;;;;;27.53;29.21;98070.94;8382092;28;20230;-72
2022/05/12 14:10:30;;;;;;;4.33;1.53;;;;;;;27.97;29.08;98078.34;8382023;28;20231;-72
2022/05/12 14:19:15;;;;;;;6.00;1.50;;;;;;;27.64;29.57;98070.50;8382171;28;20253;-72
2022/05/12 14:23:19;;;;;;;8.00;1.57;;;;;;;27.17;30.15;98071.38;8381909;28;20290;-72
2022/05/12 14:27:22;;;;;;;2.00;1.07;;;;;;;26.57;30.85;98066.47;8381500;28;20522;-72
2022/05/12 14:31:28;;;;;;;4.97;1.40;;;;;;;26.63;30.90;98063.16;8381723;28;20234;-72
2022/05/12 14:35:32;;;;;;;6.13;1.40;;;;;;;26.88;30.49;98061.28;8381644;28;20240;-74
2022/05/12 14:39:36;;;;;;;7.20;1.63;;;;;;;26.48;31.27;98063.84;8381981;28;20235;-72
2022/05/12 14:43:39;;;;;;;4.30;1.60;;;;;;;26.11;31.72;98067.78;8381384;28;20237;-72
2022/05/12 14:47:44;;;;;;;7.90;1.60;;;;;;;26.34;31.70;98059.19;8381544;28;20259;-73
2022/05/12 14:51:47;;;;;;;4.33;1.43;;;;;;;26.08;32.35;98054.88;8352263;28;20238;-73
2022/05/12 14:55:52;;;;;;;3.43;1.40;;;;;;;26.27;31.89;98048.41;8349280;28;20235;-73
2022/05/12 14:59:55;;;;;;;4.97;1.53;;;;;;;25.88;32.44;98038.38;8380848;28;20539;-73
2022/05/12 15:04:00;;;;;;;10.57;1.50;;;;;;;25.47;32.57;98040.91;8373064;28;20249;-73
2022/05/12 15:08:04;;;;;;;2.77;1.37;;;;;;;25.69;32.17;98030.72;8348011;28;20234;-73
2022/05/12 15:12:10;;;;;;;3.57;1.30;;;;;;;25.73;32.08;98024.91;8347870;28;20235;-73
2022/05/12 15:16:14;;;;;;;4.07;1.40;;;;;;;25.75;32.44;98025.59;8347103;28;20710;-73
2022/05/12 15:20:20;;;;;;;6.33;1.50;;;;;;;25.69;32.91;98026.25;8347724;28;20234;-73
2022/05/12 15:24:23;;;;;;;6.23;1.40;;;;;;;25.66;32.76;98023.06;8346849;28;20232;-73
2022/05/12 15:28:29;;;;;;;4.47;1.50;;;;;;;25.54;32.81;98018.09;8347284;28;20247;-73
2022/05/12 15:32:32;;;;;;;3.93;1.30;;;;;;;25.56;32.93;98016.09;8346991;28;20241;-73
2022/05/12 15:36:39;;;;;;;3.87;1.27;;;;;;;25.58;33.42;98023.06;8347331;28;20241;-73
2022/05/12 15:40:43;;;;;;;4.17;1.33;;;;;;;25.48;33.32;98012.59;8347429;28;20422;-73
2022/05/12 15:44:48;;;;;;;3.80;1.33;;;;;;;25.44;33.64;98012.09;8352595;28;20224;-73
2022/05/12 15:48:52;;;;;;;4.57;1.33;;;;;;;25.53;33.70;98016.44;8379550;28;20387;-72
2022/05/12 15:52:55;;;;;;;3.33;1.20;;;;;;;25.59;33.73;98019.41;8380154;28;20233;-73
2022/05/12 15:56:58;;;;;;;7.83;1.40;;;;;;;25.22;34.01;98016.13;8380024;28;20522;-74
2022/05/12 16:01:03;;;;;;;6.10;1.40;;;;;;;25.25;33.42;98018.50;8369160;28;20232;-73
2022/05/12 16:05:08;;;;;;;6.27;1.57;;;;;;;25.09;33.81;98010.44;8346322;28;20228;-73
2022/05/12 16:09:11;;;;;;;8.67;1.60;;;;;;;25.29;33.79;98016.34;8369094;28;20244;-74
2022/05/12 16:13:14;;;;;;;6.13;1.50;;;;;;;25.25;33.78;98015.84;8379852;28;20234;-73
2022/05/12 16:17:21;;;;;;;2.93;1.13;;;;;;;25.16;34.00;98000.88;8379661;28;20231;-73
2022/05/12 16:21:23;;;;;;;5.60;1.40;;;;;;;25.33;34.35;97999.13;8363027;28;20320;-74
2022/05/12 16:25:27;;;;;;;3.37;1.30;;;;;;;25.35;33.94;97992.69;8376327;28;20240;-73
2022/05/12 16:29:33;;;;;;;3.90;1.20;;;;;;;25.35;34.03;97981.25;8383995;28;20231;-74
2022/05/12 16:33:38;;;;;;;2.90;1.30;;;;;;;25.21;34.08;97993.28;8382806;28;20257;-73
2022/05/12 16:37:41;;;;;;;5.23;1.50;;;;;;;25.09;34.19;97987.44;8385664;28;20231;-74
2022/05/12 16:41:45;;;;;;;3.40;1.43;;;;;;;24.92;34.23;97983.03;8354085;28;20243;-74
2022/05/12 16:45:48;;;;;;;5.03;1.80;;;;;;;24.94;34.00;97981.06;8352257;28;20226;-75
2022/05/12 16:49:54;;;;;;;8.40;1.70;;;;;;;25.05;34.57;97979.97;8351917;28;20284;-74
2022/05/12 16:53:57;;;;;;;5.43;1.60;;;;;;;24.85;34.71;97976.75;8352099;28;20238;-74
2022/05/12 16:58:00;;;;;;;5.30;1.83;;;;;;;24.72;35.98;97990.41;8354798;28;20227;-74
2022/05/12 17:02:22;;;;;;;5.00;1.40;;;;;;;24.62;34.93;97987.88;8381408;28;20244;-74
2022/05/12 17:06:27;;;;;;;9.17;1.50;;;;;;;24.69;35.51;97988.88;8376537;28;20232;-74
2022/05/12 17:10:30;;;;;;;11.47;1.80;;;;;;;24.60;35.83;97987.19;8384336;28;20238;-72
2022/05/12 17:14:35;;;;;;;8.50;2.10;;;;;;;24.39;36.22;97985.72;8383931;28;20241;-73
2022/05/12 17:18:38;;;;;;;9.73;2.50;;;;;;;24.49;37.31;97998.00;8384110;28;20424;-73
2022/05/12 17:22:43;;;;;;;6.17;1.40;;;;;;;24.34;35.94;97985.34;8384016;28;20421;-73
2022/05/12 17:26:46;;;;;;;7.30;1.50;;;;;;;24.36;36.38;97983.34;8383772;28;20235;-76
2022/05/12 17:30:49;;;;;;;6.87;1.73;;;;;;;24.35;36.73;97994.09;8383724;28;20445;-75
2022/05/12 17:34:59;;;;;;;4.07;1.50;;;;;;;24.17;36.80;97994.97;8383809;28;20257;-74
2022/05/12 17:39:04;;;;;;;6.40;1.70;;;;;;;24.22;36.72;97991.88;8383094;28;20238;-73
2022/05/12 17:43:07;;;;;;;2.73;1.33;;;;;;;24.20;37.37;97991.19;8383423;28;20311;-73
2022/05/12 17:47:11;;;;;;;4.13;1.60;;;;;;;24.23;38.07;98006.75;8383476;28;20236;-75
2022/05/12 17:51:14;;;;;;;10.33;1.73;;;;;;;23.98;37.30;98008.38;8379976;28;20251;-75
2022/05/12 17:55:18;;;;;;;3.80;1.63;;;;;;;24.14;38.48;98003.22;8383335;28;20243;-76
2022/05/12 17:59:21;;;;;;;4.43;1.43;;;;;;;24.06;37.13;98004.97;8383110;28;20232;-72
2022/05/12 18:03:25;;;;;;;7.00;1.17;;;;;;;23.98;37.42;98022.41;8382518;28;20238;-74
2022/05/12 18:07:29;;;;;;;5.87;1.20;;;;;;;23.96;37.87;98026.19;8382890;28;20514;-74
2022/05/12 18:11:33;;;;;;;6.30;1.30;;;;;;;23.89;37.40;98027.78;8382646;28;20228;-74
2022/05/12 18:15:39;;;;;;;3.83;1.30;;;;;;;23.92;38.01;98036.25;8382549;28;20238;-75
2022/05/12 18:19:42;;;;;;;9.13;1.40;;;;;;;23.87;37.84;98041.16;8382494;28;20353;-75
2022/05/12 18:23:45;;;;;;;4.53;1.30;;;;;;;23.95;39.00;98043.03;8382046;28;20236;-75
2022/05/12 18:27:50;;;;;;;4.33;1.40;;;;;;;23.92;38.27;98051.28;8382270;28;20244;-75
2022/05/12 18:31:54;;;;;;;2.67;1.10;;;;;;;23.91;38.73;98055.75;8381760;28;20227;-74
2022/05/12 18:35:57;;;;;;;2.83;1.53;;;;;;;23.82;38.95;98051.38;8381637;28;20458;-73
2022/05/12 18:40:01;;;;;;;9.13;1.87;;;;;;;23.82;38.77;98046.06;8381754;28;20229;-74
2022/05/12 18:44:07;;;;;;;4.70;1.50;;;;;;;23.77;38.73;98053.59;8364658;28;20247;-75
2022/05/12 18:48:14;;;;;;;7.53;1.80;;;;;;;23.73;39.91;98058.34;8358349;28;20235;-74
2022/05/12 18:52:18;;;;;;;6.87;1.70;;;;;;;23.74;39.65;98046.78;8359290;28;20225;-74
2022/05/12 18:56:21;;;;;;;7.53;1.53;;;;;;;23.77;39.91;98041.19;8364267;28;20291;-74
2022/05/12 19:00:30;;;;;;;3.37;1.60;;;;;;;23.80;40.25;98042.75;8357489;28;20227;-74
2022/05/12 19:04:33;;;;;;;4.90;1.40;;;;;;;23.80;39.90;98051.50;8376198;28;20242;-74
2022/05/12 19:08:37;;;;;;;7.60;1.50;;;;;;;23.66;40.20;98046.69;8380586;28;20239;-74
2022/05/12 19:12:41;;;;;;;6.17;1.80;;;;;;;23.77;39.88;98053.59;8381015;28;20232;-74
2022/05/12 19:16:48;;;;;;;5.33;1.50;;;;;;;23.77;40.13;98056.22;8380837;28;20315;-74
2022/05/12 19:20:52;;;;;;;7.77;1.33;;;;;;;23.78;40.18;98057.91;8380676;28;20235;-74
2022/05/12 19:24:56;;;;;;;9.27;1.60;;;;;;;23.75;40.44;98053.72;8380041;28;20242;-73
2022/05/12 19:29:01;;;;;;;4.10;1.33;;;;;;;23.78;40.43;98063.19;8366410;28;20224;-73
2022/05/12 19:33:06;;;;;;;12.13;1.80;;;;;;;23.77;40.62;98064.16;8350808;28;20519;-73
2022/05/12 19:37:09;;;;;;;8.60;1.80;;;;;;;23.62;40.85;98056.72;8349372;28;20231;-73
2022/05/12 19:41:13;;;;;;;6.80;1.47;;;;;;;23.69;40.94;98067.56;8355937;28;20225;-73